sensor_id;sensor_type;location;lat;lon;timestamp;P1;durP1;ratioP1;P2;durP2;ratioP2
17965;SDS011;9108;53.204;10.424;2022-07-15T00:01:14;9.93;;;1.20;;
17965;SDS011;9108;53.204;10.424;2022-07-15T00:03:42;9.27;;;1.23;;
17965;SDS011;9108;53.204;10.424;2022-07-15T00:06:09;9.07;;;1.27;;
17965;SDS011;9108;53.204;10.424;2022-07-15T00:08:36;8.33;;;1.43;;
17965;SDS011;9108;53.204;10.424;2022-07-15T00:11:03;7.03;;;1.50;;
17965;SDS011;9108;53.204;10.424;2022-07-15T00:13:30;8.63;;;1.13;;
17965;SDS011;9108;53.204;10.424;2022-07-15T00:15:59;7.70;;;1.03;;
17965;SDS011;9108;53.204;10.424;2022-07-15T00:18:26;12.40;;;1.30;;
17965;SDS011;9108;53.204;10.424;2022-07-15T00:20:53;4.53;;;1.20;;
17965;SDS011;9108;53.204;10.424;2022-07-15T00:23:20;13.33;;;1.60;;
17965;SDS011;9108;53.204;10.424;2022-07-15T00:25:47;8.77;;;1.17;;
17965;SDS011;9108;53.204;10.424;2022-07-15T00:28:14;9.13;;;1.17;;
17965;SDS011;9108;53.204;10.424;2022-07-15T00:30:41;5.37;;;1.20;;
17965;SDS011;9108;53.204;10.424;2022-07-15T00:33:10;6.63;;;1.10;;
17965;SDS011;9108;53.204;10.424;2022-07-15T00:35:37;8.83;;;1.30;;
17965;SDS011;9108;53.204;10.424;2022-07-15T00:38:08;8.47;;;1.10;;
17965;SDS011;9108;53.204;10.424;2022-07-15T00:40:39;9.40;;;1.20;;
17965;SDS011;9108;53.204;10.424;2022-07-15T00:43:06;12.60;;;1.10;;
17965;SDS011;9108;53.204;10.424;2022-07-15T00:45:33;8.17;;;1.10;;
17965;SDS011;9108;53.204;10.424;2022-07-15T00:48:00;7.97;;;0.97;;
17965;SDS011;9108;53.204;10.424;2022-07-15T00:50:29;11.23;;;1.50;;
17965;SDS011;9108;53.204;10.424;2022-07-15T00:52:58;9.43;;;1.60;;
17965;SDS011;9108;53.204;10.424;2022-07-15T00:55:26;10.30;;;1.20;;
17965;SDS011;9108;53.204;10.424;2022-07-15T00:57:55;7.10;;;1.17;;
17965;SDS011;9108;53.204;10.424;2022-07-15T01:00:23;7.90;;;1.47;;
17965;SDS011;9108;53.204;10.424;2022-07-15T01:02:50;12.87;;;1.10;;
17965;SDS011;9108;53.204;10.424;2022-07-15T01:05:19;12.30;;;1.40;;
17965;SDS011;9108;53.204;10.424;2022-07-15T01:07:48;7.80;;;0.90;;
17965;SDS011;9108;53.204;10.424;2022-07-15T01:10:15;12.77;;;1.50;;
17965;SDS011;9108;53.204;10.424;2022-07-15T01:12:43;6.87;;;1.00;;
17965;SDS011;9108;53.204;10.424;2022-07-15T01:15:11;7.87;;;1.37;;
17965;SDS011;9108;53.204;10.424;2022-07-15T01:17:38;5.00;;;1.00;;
17965;SDS011;9108;53.204;10.424;2022-07-15T01:20:06;6.20;;;1.00;;
17965;SDS011;9108;53.204;10.424;2022-07-15T01:22:35;8.93;;;1.00;;
17965;SDS011;9108;53.204;10.424;2022-07-15T01:25:02;7.50;;;0.90;;
17965;SDS011;9108;53.204;10.424;2022-07-15T01:27:30;6.63;;;1.10;;
17965;SDS011;9108;53.204;10.424;2022-07-15T01:29:57;10.20;;;1.27;;
17965;SDS011;9108;53.204;10.424;2022-07-15T01:32:24;7.30;;;0.90;;
17965;SDS011;9108;53.204;10.424;2022-07-15T01:34:51;13.07;;;1.07;;
17965;SDS011;9108;53.204;10.424;2022-07-15T01:37:18;10.03;;;1.10;;
17965;SDS011;9108;53.204;10.424;2022-07-15T01:39:47;5.73;;;1.00;;
17965;SDS011;9108;53.204;10.424;2022-07-15T01:42:14;4.73;;;1.10;;
17965;SDS011;9108;53.204;10.424;2022-07-15T01:44:41;7.67;;;0.90;;
17965;SDS011;9108;53.204;10.424;2022-07-15T01:47:09;9.47;;;1.17;;
17965;SDS011;9108;53.204;10.424;2022-07-15T01:49:36;6.20;;;1.40;;
17965;SDS011;9108;53.204;10.424;2022-07-15T01:52:02;11.57;;;1.10;;
17965;SDS011;9108;53.204;10.424;2022-07-15T01:54:31;11.03;;;1.30;;
17965;SDS011;9108;53.204;10.424;2022-07-15T01:56:59;9.77;;;1.17;;
17965;SDS011;9108;53.204;10.424;2022-07-15T01:59:27;9.90;;;1.10;;
17965;SDS011;9108;53.204;10.424;2022-07-15T02:01:55;8.67;;;1.03;;
17965;SDS011;9108;53.204;10.424;2022-07-15T02:04:22;6.00;;;1.40;;
17965;SDS011;9108;53.204;10.424;2022-07-15T02:06:50;7.80;;;1.17;;
17965;SDS011;9108;53.204;10.424;2022-07-15T02:09:17;7.93;;;1.10;;
17965;SDS011;9108;53.204;10.424;2022-07-15T02:11:44;5.03;;;1.20;;
17965;SDS011;9108;53.204;10.424;2022-07-15T02:14:13;7.87;;;1.43;;
17965;SDS011;9108;53.204;10.424;2022-07-15T02:16:40;6.03;;;0.90;;
17965;SDS011;9108;53.204;10.424;2022-07-15T02:19:07;12.33;;;1.33;;
17965;SDS011;9108;53.204;10.424;2022-07-15T02:21:34;9.40;;;1.33;;
17965;SDS011;9108;53.204;10.424;2022-07-15T02:24:02;6.67;;;1.03;;
17965;SDS011;9108;53.204;10.424;2022-07-15T02:26:29;7.57;;;1.10;;
17965;SDS011;9108;53.204;10.424;2022-07-15T02:28:56;9.80;;;1.17;;
17965;SDS011;9108;53.204;10.424;2022-07-15T02:31:25;5.30;;;1.30;;
17965;SDS011;9108;53.204;10.424;2022-07-15T02:33:52;9.47;;;1.43;;
17965;SDS011;9108;53.204;10.424;2022-07-15T02:36:19;10.73;;;1.03;;
17965;SDS011;9108;53.204;10.424;2022-07-15T02:38:46;11.00;;;1.33;;
17965;SDS011;9108;53.204;10.424;2022-07-15T02:41:14;11.40;;;1.47;;
17965;SDS011;9108;53.204;10.424;2022-07-15T02:43:41;5.23;;;0.90;;
17965;SDS011;9108;53.204;10.424;2022-07-15T02:46:08;3.87;;;1.00;;
17965;SDS011;9108;53.204;10.424;2022-07-15T02:48:37;7.70;;;1.00;;
17965;SDS011;9108;53.204;10.424;2022-07-15T02:51:05;7.83;;;1.10;;
17965;SDS011;9108;53.204;10.424;2022-07-15T02:53:32;10.87;;;1.20;;
17965;SDS011;9108;53.204;10.424;2022-07-15T02:55:59;9.23;;;1.10;;
17965;SDS011;9108;53.204;10.424;2022-07-15T02:58:27;14.20;;;1.43;;
17965;SDS011;9108;53.204;10.424;2022-07-15T03:00:54;6.70;;;0.90;;
17965;SDS011;9108;53.204;10.424;2022-07-15T03:03:22;8.27;;;1.10;;
17965;SDS011;9108;53.204;10.424;2022-07-15T03:05:50;6.53;;;1.20;;
17965;SDS011;9108;53.204;10.424;2022-07-15T03:08:17;8.07;;;0.90;;
17965;SDS011;9108;53.204;10.424;2022-07-15T03:10:45;5.57;;;0.80;;
17965;SDS011;9108;53.204;10.424;2022-07-15T03:13:12;9.70;;;1.00;;
17965;SDS011;9108;53.204;10.424;2022-07-15T03:15:39;7.43;;;1.00;;
17965;SDS011;9108;53.204;10.424;2022-07-15T03:18:06;7.17;;;1.10;;
17965;SDS011;9108;53.204;10.424;2022-07-15T03:20:33;10.53;;;1.10;;
17965;SDS011;9108;53.204;10.424;2022-07-15T03:23:02;11.37;;;1.10;;
17965;SDS011;9108;53.204;10.424;2022-07-15T03:25:29;4.27;;;0.80;;
17965;SDS011;9108;53.204;10.424;2022-07-15T03:27:56;6.70;;;0.90;;
17965;SDS011;9108;53.204;10.424;2022-07-15T03:30:23;10.80;;;1.47;;
17965;SDS011;9108;53.204;10.424;2022-07-15T03:32:50;6.20;;;0.70;;
17965;SDS011;9108;53.204;10.424;2022-07-15T03:35:17;7.60;;;0.97;;
17965;SDS011;9108;53.204;10.424;2022-07-15T03:37:44;6.80;;;1.10;;
17965;SDS011;9108;53.204;10.424;2022-07-15T03:40:13;7.07;;;1.13;;
17965;SDS011;9108;53.204;10.424;2022-07-15T03:42:40;8.93;;;1.00;;
17965;SDS011;9108;53.204;10.424;2022-07-15T03:45:08;5.53;;;1.33;;
17965;SDS011;9108;53.204;10.424;2022-07-15T03:47:35;10.03;;;0.90;;
17965;SDS011;9108;53.204;10.424;2022-07-15T03:50:02;8.57;;;1.17;;
17965;SDS011;9108;53.204;10.424;2022-07-15T03:52:30;10.50;;;0.87;;
17965;SDS011;9108;53.204;10.424;2022-07-15T03:54:57;5.73;;;0.97;;
17965;SDS011;9108;53.204;10.424;2022-07-15T03:57:25;4.20;;;1.00;;
17965;SDS011;9108;53.204;10.424;2022-07-15T03:59:53;11.27;;;1.60;;
17965;SDS011;9108;53.204;10.424;2022-07-15T04:02:20;11.00;;;1.53;;
17965;SDS011;9108;53.204;10.424;2022-07-15T04:04:47;7.97;;;1.00;;
17965;SDS011;9108;53.204;10.424;2022-07-15T04:07:14;7.53;;;1.10;;
17965;SDS011;9108;53.204;10.424;2022-07-15T04:09:42;6.33;;;0.90;;
17965;SDS011;9108;53.204;10.424;2022-07-15T04:12:09;8.37;;;1.30;;
17965;SDS011;9108;53.204;10.424;2022-07-15T04:14:37;7.90;;;1.10;;
17965;SDS011;9108;53.204;10.424;2022-07-15T04:17:05;9.20;;;1.47;;
17965;SDS011;9108;53.204;10.424;2022-07-15T04:19:32;5.43;;;1.00;;
17965;SDS011;9108;53.204;10.424;2022-07-15T04:21:59;6.20;;;1.10;;
17965;SDS011;9108;53.204;10.424;2022-07-15T04:24:26;5.77;;;1.27;;
17965;SDS011;9108;53.204;10.424;2022-07-15T04:26:53;6.23;;;1.40;;
17965;SDS011;9108;53.204;10.424;2022-07-15T04:29:20;6.27;;;1.30;;
17965;SDS011;9108;53.204;10.424;2022-07-15T04:31:49;7.90;;;1.00;;
17965;SDS011;9108;53.204;10.424;2022-07-15T04:34:16;9.50;;;0.90;;
17965;SDS011;9108;53.204;10.424;2022-07-15T04:36:43;3.53;;;1.17;;
17965;SDS011;9108;53.204;10.424;2022-07-15T04:39:10;5.00;;;1.20;;
17965;SDS011;9108;53.204;10.424;2022-07-15T04:41:37;8.83;;;1.40;;
17965;SDS011;9108;53.204;10.424;2022-07-15T04:44:04;5.47;;;0.83;;
17965;SDS011;9108;53.204;10.424;2022-07-15T04:46:31;9.30;;;1.00;;
17965;SDS011;9108;53.204;10.424;2022-07-15T04:49:00;6.30;;;1.13;;
17965;SDS011;9108;53.204;10.424;2022-07-15T04:51:45;3.87;;;0.90;;
17965;SDS011;9108;53.204;10.424;2022-07-15T04:54:12;4.77;;;1.10;;
17965;SDS011;9108;53.204;10.424;2022-07-15T04:56:39;5.73;;;1.03;;
17965;SDS011;9108;53.204;10.424;2022-07-15T04:59:06;10.10;;;1.10;;
17965;SDS011;9108;53.204;10.424;2022-07-15T05:01:33;7.50;;;1.07;;
17965;SDS011;9108;53.204;10.424;2022-07-15T05:04:02;7.20;;;1.10;;
17965;SDS011;9108;53.204;10.424;2022-07-15T05:06:29;3.67;;;0.90;;
17965;SDS011;9108;53.204;10.424;2022-07-15T05:08:56;10.03;;;0.87;;
17965;SDS011;9108;53.204;10.424;2022-07-15T05:11:23;4.53;;;0.90;;
17965;SDS011;9108;53.204;10.424;2022-07-15T05:13:50;11.40;;;1.27;;
17965;SDS011;9108;53.204;10.424;2022-07-15T05:16:18;10.00;;;1.13;;
17965;SDS011;9108;53.204;10.424;2022-07-15T05:18:46;7.47;;;1.00;;
17965;SDS011;9108;53.204;10.424;2022-07-15T05:21:14;9.67;;;0.90;;
17965;SDS011;9108;53.204;10.424;2022-07-15T05:23:41;9.50;;;1.53;;
17965;SDS011;9108;53.204;10.424;2022-07-15T05:26:08;5.80;;;0.80;;
17965;SDS011;9108;53.204;10.424;2022-07-15T05:28:36;6.30;;;1.13;;
17965;SDS011;9108;53.204;10.424;2022-07-15T05:31:04;7.80;;;1.23;;
17965;SDS011;9108;53.204;10.424;2022-07-15T05:33:31;8.07;;;1.43;;
17965;SDS011;9108;53.204;10.424;2022-07-15T05:35:58;6.17;;;1.27;;
17965;SDS011;9108;53.204;10.424;2022-07-15T05:38:27;7.83;;;1.13;;
17965;SDS011;9108;53.204;10.424;2022-07-15T05:40:54;8.30;;;1.10;;
17965;SDS011;9108;53.204;10.424;2022-07-15T05:43:21;4.40;;;0.90;;
17965;SDS011;9108;53.204;10.424;2022-07-15T05:45:48;8.33;;;1.50;;
17965;SDS011;9108;53.204;10.424;2022-07-15T05:48:16;8.27;;;1.40;;
17965;SDS011;9108;53.204;10.424;2022-07-15T05:50:43;6.07;;;0.90;;
17965;SDS011;9108;53.204;10.424;2022-07-15T05:53:11;8.17;;;1.17;;
17965;SDS011;9108;53.204;10.424;2022-07-15T05:55:40;5.80;;;0.90;;
17965;SDS011;9108;53.204;10.424;2022-07-15T05:58:07;7.40;;;1.00;;
17965;SDS011;9108;53.204;10.424;2022-07-15T06:00:35;6.13;;;1.37;;
17965;SDS011;9108;53.204;10.424;2022-07-15T06:03:03;4.77;;;0.73;;
17965;SDS011;9108;53.204;10.424;2022-07-15T06:05:30;5.40;;;0.80;;
17965;SDS011;9108;53.204;10.424;2022-07-15T06:07:57;10.60;;;1.13;;
17965;SDS011;9108;53.204;10.424;2022-07-15T06:10:25;11.27;;;1.10;;
17965;SDS011;9108;53.204;10.424;2022-07-15T06:12:53;4.73;;;0.90;;
17965;SDS011;9108;53.204;10.424;2022-07-15T06:15:20;5.70;;;0.77;;
17965;SDS011;9108;53.204;10.424;2022-07-15T06:17:48;6.03;;;0.90;;
17965;SDS011;9108;53.204;10.424;2022-07-15T06:20:16;6.20;;;0.80;;
17965;SDS011;9108;53.204;10.424;2022-07-15T06:22:44;8.50;;;0.80;;
17965;SDS011;9108;53.204;10.424;2022-07-15T06:25:11;5.17;;;0.77;;
17965;SDS011;9108;53.204;10.424;2022-07-15T06:27:38;4.63;;;0.80;;
17965;SDS011;9108;53.204;10.424;2022-07-15T06:30:08;7.30;;;0.93;;
17965;SDS011;9108;53.204;10.424;2022-07-15T06:32:35;3.40;;;0.73;;
17965;SDS011;9108;53.204;10.424;2022-07-15T06:35:02;4.53;;;0.90;;
17965;SDS011;9108;53.204;10.424;2022-07-15T06:37:30;5.17;;;0.70;;
17965;SDS011;9108;53.204;10.424;2022-07-15T06:39:57;7.77;;;0.70;;
17965;SDS011;9108;53.204;10.424;2022-07-15T06:42:25;5.93;;;0.90;;
17965;SDS011;9108;53.204;10.424;2022-07-15T06:44:52;5.83;;;0.90;;
17965;SDS011;9108;53.204;10.424;2022-07-15T06:47:20;2.97;;;0.50;;
17965;SDS011;9108;53.204;10.424;2022-07-15T06:49:47;5.03;;;0.70;;
17965;SDS011;9108;53.204;10.424;2022-07-15T06:52:16;6.50;;;0.67;;
17965;SDS011;9108;53.204;10.424;2022-07-15T06:54:43;9.40;;;0.80;;
17965;SDS011;9108;53.204;10.424;2022-07-15T06:57:10;7.97;;;0.70;;
17965;SDS011;9108;53.204;10.424;2022-07-15T06:59:39;4.07;;;0.70;;
17965;SDS011;9108;53.204;10.424;2022-07-15T07:02:06;4.83;;;0.70;;
17965;SDS011;9108;53.204;10.424;2022-07-15T07:04:35;5.57;;;0.73;;
17965;SDS011;9108;53.204;10.424;2022-07-15T07:07:02;5.53;;;0.97;;
17965;SDS011;9108;53.204;10.424;2022-07-15T07:09:29;6.30;;;0.60;;
17965;SDS011;9108;53.204;10.424;2022-07-15T07:11:56;7.97;;;0.90;;
17965;SDS011;9108;53.204;10.424;2022-07-15T07:14:23;8.47;;;0.90;;
17965;SDS011;9108;53.204;10.424;2022-07-15T07:16:50;8.00;;;1.00;;
17965;SDS011;9108;53.204;10.424;2022-07-15T07:19:17;7.13;;;0.60;;
17965;SDS011;9108;53.204;10.424;2022-07-15T07:21:46;7.57;;;0.77;;
17965;SDS011;9108;53.204;10.424;2022-07-15T07:24:13;3.20;;;0.70;;
17965;SDS011;9108;53.204;10.424;2022-07-15T07:26:40;3.67;;;0.70;;
17965;SDS011;9108;53.204;10.424;2022-07-15T07:29:07;8.60;;;0.70;;
17965;SDS011;9108;53.204;10.424;2022-07-15T07:31:37;8.50;;;0.80;;
17965;SDS011;9108;53.204;10.424;2022-07-15T07:34:04;4.93;;;0.87;;
17965;SDS011;9108;53.204;10.424;2022-07-15T07:36:31;5.53;;;0.70;;
17965;SDS011;9108;53.204;10.424;2022-07-15T07:39:00;5.93;;;0.90;;
17965;SDS011;9108;53.204;10.424;2022-07-15T07:41:27;4.60;;;0.80;;
17965;SDS011;9108;53.204;10.424;2022-07-15T07:43:54;3.47;;;0.70;;
17965;SDS011;9108;53.204;10.424;2022-07-15T07:46:21;3.50;;;0.60;;
17965;SDS011;9108;53.204;10.424;2022-07-15T07:48:48;2.53;;;0.50;;
17965;SDS011;9108;53.204;10.424;2022-07-15T07:51:16;2.73;;;0.60;;
17965;SDS011;9108;53.204;10.424;2022-07-15T07:53:43;2.50;;;0.53;;
17965;SDS011;9108;53.204;10.424;2022-07-15T07:56:13;4.13;;;0.60;;
17965;SDS011;9108;53.204;10.424;2022-07-15T07:58:40;3.10;;;0.50;;
17965;SDS011;9108;53.204;10.424;2022-07-15T08:01:07;2.83;;;0.60;;
17965;SDS011;9108;53.204;10.424;2022-07-15T08:03:35;3.00;;;0.50;;
17965;SDS011;9108;53.204;10.424;2022-07-15T08:06:02;3.33;;;0.50;;
17965;SDS011;9108;53.204;10.424;2022-07-15T08:08:29;4.83;;;0.60;;
17965;SDS011;9108;53.204;10.424;2022-07-15T08:10:56;3.40;;;0.63;;
17965;SDS011;9108;53.204;10.424;2022-07-15T08:13:25;4.07;;;0.50;;
17965;SDS011;9108;53.204;10.424;2022-07-15T08:15:53;5.67;;;0.60;;
17965;SDS011;9108;53.204;10.424;2022-07-15T08:18:21;5.00;;;0.90;;
17965;SDS011;9108;53.204;10.424;2022-07-15T08:20:49;6.70;;;0.87;;
17965;SDS011;9108;53.204;10.424;2022-07-15T08:23:16;5.30;;;1.00;;
17965;SDS011;9108;53.204;10.424;2022-07-15T08:25:46;2.37;;;0.60;;
17965;SDS011;9108;53.204;10.424;2022-07-15T08:28:13;6.10;;;1.00;;
17965;SDS011;9108;53.204;10.424;2022-07-15T08:30:42;4.73;;;0.53;;
17965;SDS011;9108;53.204;10.424;2022-07-15T08:33:09;6.33;;;1.00;;
17965;SDS011;9108;53.204;10.424;2022-07-15T08:35:36;5.40;;;0.60;;
17965;SDS011;9108;53.204;10.424;2022-07-15T08:38:06;5.57;;;0.70;;
17965;SDS011;9108;53.204;10.424;2022-07-15T08:40:34;10.47;;;1.00;;
17965;SDS011;9108;53.204;10.424;2022-07-15T08:43:02;5.17;;;0.70;;
17965;SDS011;9108;53.204;10.424;2022-07-15T08:45:29;3.13;;;0.60;;
17965;SDS011;9108;53.204;10.424;2022-07-15T08:47:57;7.77;;;1.10;;
17965;SDS011;9108;53.204;10.424;2022-07-15T08:50:26;7.43;;;1.00;;
17965;SDS011;9108;53.204;10.424;2022-07-15T08:52:54;3.80;;;0.60;;
17965;SDS011;9108;53.204;10.424;2022-07-15T08:55:22;6.67;;;0.60;;
17965;SDS011;9108;53.204;10.424;2022-07-15T08:57:50;3.77;;;0.60;;
17965;SDS011;9108;53.204;10.424;2022-07-15T09:00:17;5.40;;;0.70;;
17965;SDS011;9108;53.204;10.424;2022-07-15T09:02:45;3.60;;;0.47;;
17965;SDS011;9108;53.204;10.424;2022-07-15T09:05:17;3.90;;;0.60;;
17965;SDS011;9108;53.204;10.424;2022-07-15T09:07:49;3.73;;;0.53;;
17965;SDS011;9108;53.204;10.424;2022-07-15T09:10:17;3.80;;;0.60;;
17965;SDS011;9108;53.204;10.424;2022-07-15T09:12:44;3.43;;;0.50;;
17965;SDS011;9108;53.204;10.424;2022-07-15T09:15:27;2.63;;;0.63;;
17965;SDS011;9108;53.204;10.424;2022-07-15T09:18:02;4.23;;;0.60;;
17965;SDS011;9108;53.204;10.424;2022-07-15T09:20:30;3.50;;;0.57;;
17965;SDS011;9108;53.204;10.424;2022-07-15T09:22:58;4.57;;;0.50;;
17965;SDS011;9108;53.204;10.424;2022-07-15T09:25:26;1.37;;;0.50;;
17965;SDS011;9108;53.204;10.424;2022-07-15T09:27:53;2.37;;;0.40;;
17965;SDS011;9108;53.204;10.424;2022-07-15T09:30:22;4.93;;;0.50;;
17965;SDS011;9108;53.204;10.424;2022-07-15T09:33:08;1.87;;;0.40;;
17965;SDS011;9108;53.204;10.424;2022-07-15T09:36:02;3.57;;;0.40;;
17965;SDS011;9108;53.204;10.424;2022-07-15T09:38:33;1.53;;;0.40;;
17965;SDS011;9108;53.204;10.424;2022-07-15T09:41:01;3.20;;;0.53;;
17965;SDS011;9108;53.204;10.424;2022-07-15T09:43:28;5.13;;;0.57;;
17965;SDS011;9108;53.204;10.424;2022-07-15T09:45:57;1.23;;;0.40;;
17965;SDS011;9108;53.204;10.424;2022-07-15T09:48:24;1.57;;;0.40;;
17965;SDS011;9108;53.204;10.424;2022-07-15T09:50:57;2.80;;;0.50;;
17965;SDS011;9108;53.204;10.424;2022-07-15T09:53:26;3.23;;;0.60;;
17965;SDS011;9108;53.204;10.424;2022-07-15T09:55:53;1.67;;;0.30;;
17965;SDS011;9108;53.204;10.424;2022-07-15T09:58:20;1.57;;;0.30;;
17965;SDS011;9108;53.204;10.424;2022-07-15T10:00:48;4.40;;;0.50;;
17965;SDS011;9108;53.204;10.424;2022-07-15T10:03:16;2.10;;;0.50;;
17965;SDS011;9108;53.204;10.424;2022-07-15T10:05:44;1.23;;;0.33;;
17965;SDS011;9108;53.204;10.424;2022-07-15T10:08:13;0.97;;;0.27;;
17965;SDS011;9108;53.204;10.424;2022-07-15T10:10:42;2.27;;;0.50;;
17965;SDS011;9108;53.204;10.424;2022-07-15T10:13:13;3.00;;;0.33;;
17965;SDS011;9108;53.204;10.424;2022-07-15T10:15:44;1.33;;;0.30;;
17965;SDS011;9108;53.204;10.424;2022-07-15T10:18:19;1.57;;;0.40;;
17965;SDS011;9108;53.204;10.424;2022-07-15T10:20:57;4.50;;;0.57;;
17965;SDS011;9108;53.204;10.424;2022-07-15T10:23:31;4.83;;;0.40;;
17965;SDS011;9108;53.204;10.424;2022-07-15T10:26:06;1.17;;;0.40;;
17965;SDS011;9108;53.204;10.424;2022-07-15T10:28:39;2.07;;;0.40;;
17965;SDS011;9108;53.204;10.424;2022-07-15T10:31:12;3.90;;;0.60;;
17965;SDS011;9108;53.204;10.424;2022-07-15T10:33:39;2.27;;;0.40;;
17965;SDS011;9108;53.204;10.424;2022-07-15T10:36:07;2.13;;;0.47;;
17965;SDS011;9108;53.204;10.424;2022-07-15T10:38:35;4.70;;;0.60;;
17965;SDS011;9108;53.204;10.424;2022-07-15T10:41:05;4.13;;;0.40;;
17965;SDS011;9108;53.204;10.424;2022-07-15T10:43:39;2.17;;;0.40;;
17965;SDS011;9108;53.204;10.424;2022-07-15T10:46:13;2.67;;;0.30;;
17965;SDS011;9108;53.204;10.424;2022-07-15T10:48:44;2.27;;;0.50;;
17965;SDS011;9108;53.204;10.424;2022-07-15T10:51:11;3.30;;;0.50;;
17965;SDS011;9108;53.204;10.424;2022-07-15T10:53:42;2.87;;;0.50;;
17965;SDS011;9108;53.204;10.424;2022-07-15T10:56:26;3.23;;;0.40;;
17965;SDS011;9108;53.204;10.424;2022-07-15T10:59:07;1.80;;;0.40;;
17965;SDS011;9108;53.204;10.424;2022-07-15T11:01:34;5.03;;;0.70;;
17965;SDS011;9108;53.204;10.424;2022-07-15T11:04:14;2.57;;;0.57;;
17965;SDS011;9108;53.204;10.424;2022-07-15T11:09:44;0.80;;;0.20;;
17965;SDS011;9108;53.204;10.424;2022-07-15T11:12:12;1.60;;;0.50;;
17965;SDS011;9108;53.204;10.424;2022-07-15T11:14:44;2.63;;;0.40;;
17965;SDS011;9108;53.204;10.424;2022-07-15T11:17:12;2.47;;;0.40;;
17965;SDS011;9108;53.204;10.424;2022-07-15T11:19:42;3.20;;;0.30;;
17965;SDS011;9108;53.204;10.424;2022-07-15T11:22:09;3.27;;;0.50;;
17965;SDS011;9108;53.204;10.424;2022-07-15T11:24:36;1.17;;;0.43;;
17965;SDS011;9108;53.204;10.424;2022-07-15T11:27:04;1.73;;;0.40;;
17965;SDS011;9108;53.204;10.424;2022-07-15T11:29:42;3.23;;;0.30;;
17965;SDS011;9108;53.204;10.424;2022-07-15T11:32:09;2.43;;;0.30;;
17965;SDS011;9108;53.204;10.424;2022-07-15T11:34:38;1.07;;;0.40;;
17965;SDS011;9108;53.204;10.424;2022-07-15T11:37:05;1.80;;;0.40;;
17965;SDS011;9108;53.204;10.424;2022-07-15T11:39:33;3.03;;;0.50;;
17965;SDS011;9108;53.204;10.424;2022-07-15T11:42:00;1.60;;;0.37;;
17965;SDS011;9108;53.204;10.424;2022-07-15T11:44:47;3.30;;;0.50;;
17965;SDS011;9108;53.204;10.424;2022-07-15T11:47:14;2.73;;;0.40;;
17965;SDS011;9108;53.204;10.424;2022-07-15T11:49:41;3.10;;;0.47;;
17965;SDS011;9108;53.204;10.424;2022-07-15T11:52:12;4.83;;;0.50;;
17965;SDS011;9108;53.204;10.424;2022-07-15T11:54:40;0.83;;;0.30;;
17965;SDS011;9108;53.204;10.424;2022-07-15T11:57:09;2.20;;;0.40;;
17965;SDS011;9108;53.204;10.424;2022-07-15T11:59:37;1.77;;;0.50;;
17965;SDS011;9108;53.204;10.424;2022-07-15T12:02:06;2.53;;;0.40;;
17965;SDS011;9108;53.204;10.424;2022-07-15T12:04:33;4.80;;;0.43;;
17965;SDS011;9108;53.204;10.424;2022-07-15T12:07:01;2.20;;;0.30;;
17965;SDS011;9108;53.204;10.424;2022-07-15T12:09:37;1.70;;;0.30;;
17965;SDS011;9108;53.204;10.424;2022-07-15T12:12:05;2.13;;;0.40;;
17965;SDS011;9108;53.204;10.424;2022-07-15T12:14:32;1.73;;;0.40;;
17965;SDS011;9108;53.204;10.424;2022-07-15T12:16:59;1.27;;;0.40;;
17965;SDS011;9108;53.204;10.424;2022-07-15T12:19:28;1.80;;;0.30;;
17965;SDS011;9108;53.204;10.424;2022-07-15T12:21:56;2.90;;;0.40;;
17965;SDS011;9108;53.204;10.424;2022-07-15T12:24:24;2.87;;;0.50;;
17965;SDS011;9108;53.204;10.424;2022-07-15T12:26:55;4.20;;;0.50;;
17965;SDS011;9108;53.204;10.424;2022-07-15T12:29:23;1.67;;;0.40;;
17965;SDS011;9108;53.204;10.424;2022-07-15T12:31:51;3.37;;;0.40;;
17965;SDS011;9108;53.204;10.424;2022-07-15T12:34:19;2.33;;;0.40;;
17965;SDS011;9108;53.204;10.424;2022-07-15T12:36:55;1.07;;;0.20;;
17965;SDS011;9108;53.204;10.424;2022-07-15T12:39:22;3.80;;;0.47;;
17965;SDS011;9108;53.204;10.424;2022-07-15T12:41:59;2.27;;;0.40;;
17965;SDS011;9108;53.204;10.424;2022-07-15T12:44:27;2.30;;;0.30;;
17965;SDS011;9108;53.204;10.424;2022-07-15T12:46:55;4.43;;;0.50;;
17965;SDS011;9108;53.204;10.424;2022-07-15T12:49:44;3.27;;;0.40;;
17965;SDS011;9108;53.204;10.424;2022-07-15T12:52:13;1.23;;;0.30;;
17965;SDS011;9108;53.204;10.424;2022-07-15T12:54:40;3.03;;;0.73;;
17965;SDS011;9108;53.204;10.424;2022-07-15T12:57:19;2.27;;;0.40;;
17965;SDS011;9108;53.204;10.424;2022-07-15T12:59:49;2.53;;;0.43;;
17965;SDS011;9108;53.204;10.424;2022-07-15T13:02:16;7.13;;;0.50;;
17965;SDS011;9108;53.204;10.424;2022-07-15T13:04:43;1.90;;;0.30;;
17965;SDS011;9108;53.204;10.424;2022-07-15T13:07:10;4.60;;;0.50;;
17965;SDS011;9108;53.204;10.424;2022-07-15T13:09:37;1.00;;;0.40;;
17965;SDS011;9108;53.204;10.424;2022-07-15T13:12:04;1.97;;;0.30;;
17965;SDS011;9108;53.204;10.424;2022-07-15T13:14:33;2.57;;;0.40;;
17965;SDS011;9108;53.204;10.424;2022-07-15T13:17:00;2.87;;;0.47;;
17965;SDS011;9108;53.204;10.424;2022-07-15T13:19:27;4.97;;;0.50;;
17965;SDS011;9108;53.204;10.424;2022-07-15T13:21:54;4.00;;;0.47;;
17965;SDS011;9108;53.204;10.424;2022-07-15T13:24:21;1.43;;;0.40;;
17965;SDS011;9108;53.204;10.424;2022-07-15T13:26:48;2.70;;;0.40;;
17965;SDS011;9108;53.204;10.424;2022-07-15T13:29:16;3.60;;;0.40;;
17965;SDS011;9108;53.204;10.424;2022-07-15T13:31:44;1.93;;;0.40;;
17965;SDS011;9108;53.204;10.424;2022-07-15T13:34:11;2.17;;;0.30;;
17965;SDS011;9108;53.204;10.424;2022-07-15T13:36:38;2.73;;;0.50;;
17965;SDS011;9108;53.204;10.424;2022-07-15T13:39:05;8.43;;;0.70;;
17965;SDS011;9108;53.204;10.424;2022-07-15T13:41:32;3.40;;;0.40;;
17965;SDS011;9108;53.204;10.424;2022-07-15T13:43:59;3.10;;;0.40;;
17965;SDS011;9108;53.204;10.424;2022-07-15T13:46:27;3.63;;;0.30;;
17965;SDS011;9108;53.204;10.424;2022-07-15T13:48:55;1.40;;;0.30;;
17965;SDS011;9108;53.204;10.424;2022-07-15T13:51:22;2.53;;;0.40;;
17965;SDS011;9108;53.204;10.424;2022-07-15T13:53:48;3.00;;;0.40;;
17965;SDS011;9108;53.204;10.424;2022-07-15T13:56:15;0.70;;;0.20;;
17965;SDS011;9108;53.204;10.424;2022-07-15T13:58:43;3.43;;;0.40;;
17965;SDS011;9108;53.204;10.424;2022-07-15T14:01:10;3.90;;;0.50;;
17965;SDS011;9108;53.204;10.424;2022-07-15T14:03:37;1.20;;;0.40;;
17965;SDS011;9108;53.204;10.424;2022-07-15T14:06:05;1.87;;;0.40;;
17965;SDS011;9108;53.204;10.424;2022-07-15T14:08:34;1.43;;;0.27;;
17965;SDS011;9108;53.204;10.424;2022-07-15T14:11:01;5.70;;;0.57;;
17965;SDS011;9108;53.204;10.424;2022-07-15T14:13:28;2.33;;;0.23;;
17965;SDS011;9108;53.204;10.424;2022-07-15T14:15:55;1.70;;;0.30;;
17965;SDS011;9108;53.204;10.424;2022-07-15T14:18:22;2.03;;;0.33;;
17965;SDS011;9108;53.204;10.424;2022-07-15T14:21:03;2.07;;;0.30;;
17965;SDS011;9108;53.204;10.424;2022-07-15T14:23:32;3.43;;;0.47;;
17965;SDS011;9108;53.204;10.424;2022-07-15T14:25:59;5.50;;;0.50;;
17965;SDS011;9108;53.204;10.424;2022-07-15T14:28:26;5.70;;;0.60;;
17965;SDS011;9108;53.204;10.424;2022-07-15T14:30:53;1.73;;;0.30;;
17965;SDS011;9108;53.204;10.424;2022-07-15T14:33:20;2.90;;;0.30;;
17965;SDS011;9108;53.204;10.424;2022-07-15T14:35:47;2.57;;;0.43;;
17965;SDS011;9108;53.204;10.424;2022-07-15T14:38:14;1.90;;;0.37;;
17965;SDS011;9108;53.204;10.424;2022-07-15T14:40:43;2.10;;;0.40;;
17965;SDS011;9108;53.204;10.424;2022-07-15T14:43:10;1.90;;;0.40;;
17965;SDS011;9108;53.204;10.424;2022-07-15T14:45:37;1.73;;;0.50;;
17965;SDS011;9108;53.204;10.424;2022-07-15T14:48:05;1.37;;;0.40;;
17965;SDS011;9108;53.204;10.424;2022-07-15T14:50:32;2.17;;;0.27;;
17965;SDS011;9108;53.204;10.424;2022-07-15T14:52:59;4.37;;;0.50;;
17965;SDS011;9108;53.204;10.424;2022-07-15T14:55:26;0.80;;;0.40;;